Time;durP1;ratioP1;P1;durP2;ratioP2;P2;SDS_P1;SDS_P2;PMS_P1;PMS_P2;Temp;Humidity;BMP_temperature;BMP_pressure;BME280_temperature;BME280_humidity;BME280_pressure;Samples;Min_cycle;Max_cycle;Signal;HPM_P1;HPM_P2
2021/04/10 00:01:59;;;;;;;10.20;6.13;;;6.00;99.90;;;;;;5073234;28;20449;-76
2021/04/10 00:04:27;;;;;;;9.57;5.95;;;6.00;99.90;;;;;;5072762;28;20795;-76
2021/04/10 00:06:54;;;;;;;12.27;5.93;;;6.10;99.90;;;;;;5075654;28;20629;-76
2021/04/10 00:09:22;;;;;;;9.57;6.00;;;6.00;99.90;;;;;;5076720;28;20512;-76
2021/04/10 00:11:49;;;;;;;8.83;6.03;;;6.00;99.90;;;;;;5077251;28;20866;-76
2021/04/10 00:14:17;;;;;;;10.37;6.27;;;6.00;99.90;;;;;;5075909;28;20444;-76
2021/04/10 00:16:44;;;;;;;11.13;6.07;;;5.90;99.90;;;;;;5077088;28;20467;-76
2021/04/10 00:19:12;;;;;;;10.50;6.30;;;5.90;99.90;;;;;;5077110;28;20449;-76
2021/04/10 00:21:39;;;;;;;9.67;6.13;;;5.90;99.90;;;;;;5076503;28;20429;-76
2021/04/10 00:24:08;;;;;;;7.70;6.23;;;5.90;99.90;;;;;;5084249;28;20452;-76
2021/04/10 00:26:36;;;;;;;11.27;6.43;;;5.90;99.90;;;;;;5096876;28;20469;-76
2021/04/10 00:29:03;;;;;;;12.23;6.27;;;5.90;99.90;;;;;;5095458;28;20572;-76
2021/04/10 00:31:30;;;;;;;9.63;6.10;;;5.80;99.90;;;;;;5096786;28;20440;-76
2021/04/10 00:33:58;;;;;;;8.27;6.60;;;5.80;99.90;;;;;;5095510;28;20440;-76
2021/04/10 00:36:25;;;;;;;6.57;5.87;;;5.80;99.90;;;;;;5095675;28;20450;-76
2021/04/10 00:38:52;;;;;;;8.67;5.70;;;5.80;99.90;;;;;;5096937;28;20505;-76
2021/04/10 00:41:21;;;;;;;16.73;6.77;;;5.80;99.90;;;;;;5095242;28;20892;-76
2021/04/10 00:43:49;;;;;;;7.03;6.00;;;5.80;99.90;;;;;;5076744;28;20548;-76
2021/04/10 00:46:16;;;;;;;7.40;6.20;;;5.80;99.90;;;;;;5081864;28;20937;-76
2021/04/10 00:48:45;;;;;;;8.53;6.30;;;5.80;99.90;;;;;;5095276;28;20464;-76
2021/04/10 00:51:12;;;;;;;8.43;6.13;;;5.80;99.90;;;;;;5094158;28;20471;-76
2021/04/10 00:53:41;;;;;;;12.17;6.03;;;5.80;99.90;;;;;;5088902;28;20489;-76
2021/04/10 00:56:10;;;;;;;7.80;6.37;;;5.80;99.90;;;;;;5096346;28;20432;-76
2021/04/10 00:58:38;;;;;;;8.20;6.20;;;5.70;99.90;;;;;;5095050;28;20460;-76
2021/04/10 01:01:06;;;;;;;9.03;6.57;;;5.70;99.90;;;;;;5095106;28;20533;-76
2021/04/10 01:03:37;;;;;;;10.43;6.50;;;5.70;99.90;;;;;;5096483;28;20412;-76
2021/04/10 01:06:05;;;;;;;8.33;6.63;;;5.70;99.90;;;;;;5086883;28;20449;-76
2021/04/10 01:08:32;;;;;;;9.97;6.40;;;5.70;99.90;;;;;;5078923;28;20441;-76
2021/04/10 01:11:09;;;;;;;13.10;5.67;;;5.70;99.90;;;;;;5076011;28;20970;-76
2021/04/10 01:13:46;;;;;;;12.50;7.20;;;5.70;99.90;;;;;;5075791;28;20428;-76
2021/04/10 01:16:19;;;;;;;9.63;5.83;;;5.60;99.90;;;;;;5074297;28;20494;-76
2021/04/10 01:18:55;;;;;;;11.30;6.57;;;5.60;99.90;;;;;;5076149;28;20510;-76
2021/04/10 01:21:32;;;;;;;10.20;5.60;;;5.60;99.90;;;;;;5074501;28;20437;-76
2021/04/10 01:24:45;;;;;;;9.00;5.73;;;5.60;99.90;;;;;;5081615;28;20940;-76
2021/04/10 01:27:38;;;;;;;10.40;5.57;;;5.60;99.90;;;;;;5093594;28;20464;-76
2021/04/10 01:30:10;;;;;;;11.63;6.30;;;5.60;99.90;;;;;;5074099;28;20497;-76
2021/04/10 01:32:43;;;;;;;9.90;7.20;;;5.60;99.90;;;;;;5075797;28;20430;-76
2021/04/10 01:35:15;;;;;;;8.47;6.17;;;5.60;99.90;;;;;;5074055;28;20954;-76
2021/04/10 01:37:52;;;;;;;10.77;6.43;;;5.60;99.90;;;;;;5074182;28;20448;-76
2021/04/10 01:40:21;;;;;;;9.90;6.40;;;5.60;99.90;;;;;;5075543;28;20455;-76
2021/04/10 01:42:51;;;;;;;10.50;6.37;;;5.60;99.90;;;;;;5074064;28;20453;-76
2021/04/10 01:45:21;;;;;;;9.30;5.93;;;5.60;99.90;;;;;;5091780;28;20448;-76
2021/04/10 01:47:52;;;;;;;11.03;6.30;;;5.60;99.90;;;;;;5089232;28;20455;-76
2021/04/10 01:50:21;;;;;;;9.43;6.87;;;5.60;99.90;;;;;;5075792;28;20576;-76
2021/04/10 01:52:52;;;;;;;9.67;5.50;;;5.60;99.90;;;;;;5076263;28;20442;-76
2021/04/10 01:55:20;;;;;;;11.17;5.80;;;5.70;99.90;;;;;;5073781;28;20449;-76
2021/04/10 01:57:53;;;;;;;13.60;6.30;;;5.70;99.90;;;;;;5073960;28;20469;-76
2021/04/10 02:00:29;;;;;;;10.20;6.37;;;5.70;99.90;;;;;;5074873;28;20457;-76
2021/04/10 02:03:01;;;;;;;12.25;6.32;;;5.70;99.90;;;;;;5072624;28;20437;-76
2021/04/10 02:05:29;;;;;;;11.60;5.60;;;5.80;99.90;;;;;;5075111;28;20549;-76
2021/04/10 02:08:09;;;;;;;8.87;5.40;;;5.80;99.90;;;;;;5085061;28;20452;-76
2021/04/10 02:10:39;;;;;;;12.80;6.20;;;5.80;99.90;;;;;;5094735;28;20464;-76
2021/04/10 02:13:27;;;;;;;9.77;5.40;;;5.80;99.90;;;;;;5095422;28;20798;-76
2021/04/10 02:15:55;;;;;;;11.40;5.87;;;5.80;99.90;;;;;;5094778;28;20448;-76
2021/04/10 02:18:29;;;;;;;13.80;5.73;;;5.70;99.90;;;;;;5093451;28;20801;-76
2021/04/10 02:21:07;;;;;;;8.93;5.27;;;5.70;99.90;;;;;;5086961;28;20441;-76
2021/04/10 02:23:35;;;;;;;14.37;6.70;;;5.70;99.90;;;;;;5073363;28;20500;-77
2021/04/10 02:26:10;;;;;;;8.50;5.30;;;5.70;99.90;;;;;;5073391;28;20522;-76
2021/04/10 02:28:37;;;;;;;9.50;5.13;;;5.70;99.90;;;;;;5088784;28;20507;-76
2021/04/10 02:31:06;;;;;;;11.10;4.90;;;5.70;99.90;;;;;;5094471;28;20485;-76
2021/04/10 02:33:39;;;;;;;6.67;4.47;;;5.70;99.90;;;;;;5095174;28;20941;-76
2021/04/10 02:36:13;;;;;;;7.83;3.90;;;5.70;99.90;;;;;;5088359;28;20468;-76
2021/04/10 02:38:42;;;;;;;8.37;3.50;;;5.60;99.90;;;;;;5072935;28;20465;-76
2021/04/10 02:41:13;;;;;;;6.30;3.70;;;5.60;99.90;;;;;;5072900;28;20452;-76
2021/04/10 02:43:45;;;;;;;7.37;3.70;;;5.60;99.90;;;;;;5074332;28;20421;-76
2021/04/10 02:46:16;;;;;;;9.10;3.97;;;5.60;99.90;;;;;;5073122;28;20445;-76
2021/04/10 02:48:55;;;;;;;11.80;3.20;;;5.60;99.90;;;;;;5091078;28;20503;-76
2021/04/10 02:51:28;;;;;;;4.60;2.83;;;5.50;99.90;;;;;;5086011;28;20471;-76
2021/04/10 02:53:56;;;;;;;6.57;3.07;;;5.50;99.90;;;;;;5072769;28;20440;-76
2021/04/10 02:56:28;;;;;;;7.60;2.93;;;5.50;99.90;;;;;;5072729;28;20520;-76
2021/04/10 02:58:59;;;;;;;7.10;2.43;;;5.50;99.90;;;;;;5072642;28;20465;-76
2021/04/10 03:01:30;;;;;;;5.50;2.60;;;5.50;99.90;;;;;;5073283;28;20506;-76
2021/04/10 03:03:59;;;;;;;6.03;3.10;;;5.50;99.90;;;;;;5091121;28;20467;-76
2021/04/10 03:06:29;;;;;;;4.77;2.63;;;5.40;99.90;;;;;;5093300;28;20452;-76
2021/04/10 03:08:58;;;;;;;6.33;2.90;;;5.40;99.90;;;;;;5092809;28;20894;-76
2021/04/10 03:11:26;;;;;;;8.63;3.20;;;5.50;99.90;;;;;;5090906;28;20514;-76
2021/04/10 03:13:54;;;;;;;4.70;2.07;;;5.40;99.90;;;;;;5078453;28;20497;-76
2021/04/10 03:16:29;;;;;;;4.67;2.47;;;5.40;99.90;;;;;;5093042;28;20441;-76
2021/04/10 03:19:04;;;;;;;5.23;2.40;;;5.40;99.90;;;;;;5092804;28;20548;-76
2021/04/10 03:21:34;;;;;;;8.60;2.20;;;5.40;99.90;;;;;;5093026;28;20432;-76
2021/04/10 03:24:07;;;;;;;4.53;2.03;;;5.40;99.90;;;;;;5089064;28;20453;-76
2021/04/10 03:26:36;;;;;;;6.70;2.60;;;5.40;99.90;;;;;;5074425;28;20469;-76
2021/04/10 03:29:07;;;;;;;8.93;4.07;;;5.40;99.90;;;;;;5074352;28;20474;-76
2021/04/10 03:31:41;;;;;;;9.70;2.40;;;5.40;99.90;;;;;;5072590;28;20554;-76
2021/04/10 03:34:09;;;;;;;6.10;2.30;;;5.40;99.90;;;;;;5072555;28;20453;-76
2021/04/10 03:36:39;;;;;;;4.90;2.60;;;5.40;99.90;;;;;;5088897;28;20452;-76
2021/04/10 03:39:07;;;;;;;5.93;2.33;;;5.40;99.90;;;;;;5074540;28;20572;-77
2021/04/10 03:41:35;;;;;;;7.30;2.67;;;5.40;99.90;;;;;;5083412;28;20570;-76
2021/04/10 03:44:05;;;;;;;5.70;2.23;;;5.40;99.90;;;;;;5097632;28;20444;-76
2021/04/10 03:46:35;;;;;;;5.20;3.17;;;5.40;99.90;;;;;;5098206;28;20953;-76
2021/04/10 03:49:04;;;;;;;4.77;2.53;;;5.40;99.90;;;;;;5099550;28;20524;-76
2021/04/10 03:51:32;;;;;;;5.63;2.10;;;5.40;99.90;;;;;;5099018;28;20568;-76
2021/04/10 03:54:02;;;;;;;7.43;2.73;;;5.40;99.90;;;;;;5097804;28;20444;-76
2021/04/10 03:56:30;;;;;;;6.97;2.80;;;5.40;99.90;;;;;;5097627;28;20452;-76
2021/04/10 03:59:07;;;;;;;5.77;2.00;;;5.40;99.90;;;;;;5090666;28;20507;-76
2021/04/10 04:02:01;;;;;;;5.17;2.17;;;5.40;99.90;;;;;;5078010;28;20444;-76
2021/04/10 04:04:33;;;;;;;7.40;2.63;;;5.40;99.90;;;;;;5077685;28;20440;-76
2021/04/10 04:07:00;;;;;;;7.33;3.13;;;5.40;99.90;;;;;;5077630;28;20942;-76
2021/04/10 04:09:28;;;;;;;8.47;2.40;;;5.40;99.90;;;;;;5077499;28;20500;-76
2021/04/10 04:11:55;;;;;;;7.60;2.30;;;5.40;99.90;;;;;;5078481;28;20473;-76
2021/04/10 04:14:22;;;;;;;6.03;2.30;;;5.40;99.90;;;;;;5096214;28;20446;-76
2021/04/10 04:16:49;;;;;;;5.20;2.20;;;5.40;99.90;;;;;;5092376;28;20507;-76
2021/04/10 04:19:17;;;;;;;8.57;2.30;;;5.40;99.90;;;;;;5078948;28;20213;-76
2021/04/10 04:21:45;;;;;;;5.43;2.10;;;5.40;99.90;;;;;;5078875;28;20979;-76
2021/04/10 04:24:12;;;;;;;4.90;2.00;;;5.40;99.90;;;;;;5079271;28;20584;-76
2021/04/10 04:26:39;;;;;;;7.97;2.30;;;5.40;99.90;;;;;;5078647;28;20983;-76
2021/04/10 04:29:07;;;;;;;6.70;2.43;;;5.40;99.90;;;;;;5091462;28;20517;-76
2021/04/10 04:31:34;;;;;;;7.27;2.97;;;5.30;99.90;;;;;;5096258;28;20464;-76
2021/04/10 04:34:02;;;;;;;5.90;2.07;;;5.30;99.90;;;;;;5097270;28;20451;-76
2021/04/10 04:36:29;;;;;;;4.60;1.83;;;5.30;99.90;;;;;;5097830;28;20432;-76
2021/04/10 04:38:57;;;;;;;6.00;1.93;;;5.30;99.90;;;;;;5097194;28;20452;-76
2021/04/10 04:41:24;;;;;;;6.20;1.43;;;5.30;99.90;;;;;;5096626;28;20775;-76
2021/04/10 04:43:52;;;;;;;4.73;1.80;;;5.30;99.90;;;;;;5096732;28;20445;-76
2021/04/10 04:46:19;;;;;;;3.40;1.40;;;5.30;99.90;;;;;;5094091;28;20539;-76
2021/04/10 04:48:46;;;;;;;4.43;1.70;;;5.30;99.90;;;;;;5091552;28;20461;-76
2021/04/10 04:51:13;;;;;;;4.77;2.07;;;5.30;99.90;;;;;;5075716;28;20511;-76
2021/04/10 04:53:40;;;;;;;6.53;1.83;;;5.30;99.90;;;;;;5078433;28;20537;-76
2021/04/10 04:56:08;;;;;;;4.53;1.50;;;5.30;99.90;;;;;;5096728;28;20439;-76
2021/04/10 04:58:36;;;;;;;6.10;1.93;;;5.30;99.90;;;;;;5095417;28;20499;-76
2021/04/10 05:01:03;;;;;;;4.90;1.90;;;5.30;99.90;;;;;;5096078;28;20851;-76
2021/04/10 05:03:30;;;;;;;10.77;2.63;;;5.30;99.90;;;;;;5097160;28;20488;-76
2021/04/10 05:05:57;;;;;;;5.60;2.53;;;5.30;99.90;;;;;;5090998;28;20445;-76
2021/04/10 05:08:24;;;;;;;7.23;2.63;;;5.30;99.90;;;;;;5091934;28;20443;-76
2021/04/10 05:10:52;;;;;;;4.37;2.23;;;5.30;99.90;;;;;;5096079;28;20960;-76
2021/04/10 05:13:20;;;;;;;6.20;2.80;;;5.30;99.90;;;;;;5096071;28;20847;-76
2021/04/10 05:15:48;;;;;;;5.50;1.97;;;5.30;99.90;;;;;;5082612;28;20468;-76
2021/04/10 05:18:15;;;;;;;5.00;2.83;;;5.30;99.90;;;;;;5079911;28;20498;-76
2021/04/10 05:20:43;;;;;;;6.03;2.90;;;5.30;99.90;;;;;;5095904;28;20531;-76
2021/04/10 05:23:10;;;;;;;4.17;1.97;;;5.30;99.90;;;;;;5094748;28;20444;-76
2021/04/10 05:25:37;;;;;;;6.30;2.70;;;5.30;99.90;;;;;;5095927;28;20945;-76
2021/04/10 05:28:05;;;;;;;6.77;2.50;;;5.30;99.90;;;;;;5079669;28;20968;-76
2021/04/10 05:30:33;;;;;;;4.00;2.63;;;5.30;99.90;;;;;;5088852;28;20915;-76
2021/04/10 05:33:00;;;;;;;7.03;2.30;;;5.30;99.90;;;;;;5095737;28;20493;-76
2021/04/10 05:35:27;;;;;;;5.00;2.43;;;5.30;99.90;;;;;;5094362;28;20449;-76
2021/04/10 05:37:55;;;;;;;6.53;2.70;;;5.30;99.90;;;;;;5088619;28;20475;-76
2021/04/10 05:40:22;;;;;;;7.50;3.17;;;5.30;99.90;;;;;;5091449;28;20902;-76
2021/04/10 05:42:49;;;;;;;5.40;3.00;;;5.30;99.90;;;;;;5096109;28;20466;-76
2021/04/10 05:45:16;;;;;;;9.27;3.57;;;5.30;99.90;;;;;;5095382;28;20835;-76
2021/04/10 05:47:45;;;;;;;10.03;3.00;;;5.40;99.90;;;;;;5093050;28;20435;-76
2021/04/10 05:50:12;;;;;;;7.17;3.40;;;5.40;99.90;;;;;;5094415;28;20472;-76
2021/04/10 05:52:40;;;;;;;4.87;2.27;;;5.40;99.90;;;;;;5095128;28;20428;-76
2021/04/10 05:55:08;;;;;;;7.17;3.27;;;5.40;99.90;;;;;;5095584;28;20922;-76
2021/04/10 05:57:36;;;;;;;4.70;2.37;;;5.40;99.90;;;;;;5084971;28;20476;-76
2021/04/10 06:00:05;;;;;;;5.43;3.10;;;5.40;99.90;;;;;;5073655;28;21099;-76
2021/04/10 06:02:39;;;;;;;4.20;2.33;;;5.40;99.90;;;;;;5053998;28;20505;-76
2021/04/10 06:05:08;;;;;;;6.87;2.50;;;5.40;99.90;;;;;;5053689;28;20438;-76
2021/04/10 06:07:35;;;;;;;3.87;2.70;;;5.50;99.90;;;;;;5053680;28;20442;-76
2021/04/10 06:10:04;;;;;;;9.77;6.60;;;5.50;99.90;;;;;;5057983;28;20488;-76
2021/04/10 06:12:31;;;;;;;8.53;6.40;;;5.50;99.90;;;;;;5093559;28;20572;-76
2021/04/10 06:14:58;;;;;;;7.10;4.77;;;5.60;99.90;;;;;;5093574;28;20444;-76
2021/04/10 06:17:26;;;;;;;3.70;2.70;;;5.60;99.90;;;;;;5093548;28;20452;-76
2021/04/10 06:19:53;;;;;;;5.47;2.03;;;5.60;99.90;;;;;;5093530;28;20551;-76
2021/04/10 06:22:37;;;;;;;5.63;2.45;;;5.60;99.90;;;;;;5085442;28;20440;-76
2021/04/10 06:25:06;;;;;;;6.33;2.00;;;5.70;99.90;;;;;;5074860;28;20186;-76
2021/04/10 06:27:34;;;;;;;6.57;2.20;;;5.70;99.90;;;;;;5074625;28;20499;-76
2021/04/10 06:30:01;;;;;;;5.60;1.67;;;5.70;99.90;;;;;;5074428;28;20476;-76
2021/04/10 06:32:29;;;;;;;4.73;2.20;;;5.70;99.90;;;;;;5073213;28;20857;-76
2021/04/10 06:34:56;;;;;;;4.97;1.90;;;5.70;99.90;;;;;;5079226;28;20480;-76
2021/04/10 06:37:23;;;;;;;4.10;2.40;;;5.70;99.90;;;;;;5093504;28;21003;-76
2021/04/10 06:39:51;;;;;;;3.23;2.00;;;5.70;99.90;;;;;;5094133;28;20524;-77
2021/04/10 06:42:20;;;;;;;6.73;2.07;;;5.70;99.90;;;;;;5093949;28;20429;-77
2021/04/10 06:44:47;;;;;;;5.43;1.63;;;5.70;99.90;;;;;;5094785;28;20437;-77
2021/04/10 06:47:20;;;;;;;7.17;1.80;;;5.80;99.90;;;;;;5090654;28;20463;-77
2021/04/10 06:49:49;;;;;;;6.73;2.10;;;5.80;99.90;;;;;;5074253;28;20465;-75
2021/04/10 06:52:17;;;;;;;6.53;2.37;;;5.80;99.90;;;;;;5074362;28;20504;-76
2021/04/10 06:54:48;;;;;;;8.43;1.97;;;5.80;99.90;;;;;;5074731;28;20430;-75
2021/04/10 06:57:22;;;;;;;3.13;1.77;;;5.80;99.90;;;;;;5086430;28;20452;-75
2021/04/10 06:59:56;;;;;;;5.63;2.00;;;5.90;99.90;;;;;;5093481;28;21057;-76
2021/04/10 07:02:25;;;;;;;6.77;1.90;;;5.90;99.90;;;;;;5093408;28;20435;-75
2021/04/10 07:04:55;;;;;;;6.27;2.20;;;6.00;99.90;;;;;;5093370;28;20969;-75
2021/04/10 07:07:24;;;;;;;6.47;2.20;;;6.00;99.90;;;;;;5093508;28;20513;-76
2021/04/10 07:09:51;;;;;;;7.07;2.23;;;6.10;99.90;;;;;;5094428;28;20452;-75
2021/04/10 07:12:20;;;;;;;5.33;2.40;;;6.10;99.90;;;;;;5075699;28;20849;-75
2021/04/10 07:14:48;;;;;;;4.03;1.93;;;6.10;99.90;;;;;;5072808;28;20449;-76
2021/04/10 07:17:17;;;;;;;10.63;2.97;;;6.20;99.90;;;;;;5084426;28;20432;-76
2021/04/10 07:19:44;;;;;;;5.70;2.50;;;6.20;99.90;;;;;;5092525;28;20467;-75
2021/04/10 07:22:13;;;;;;;5.80;2.97;;;6.30;99.90;;;;;;5093582;28;20493;-75
2021/04/10 07:24:43;;;;;;;8.93;2.73;;;6.40;99.90;;;;;;5086322;28;20452;-74
2021/04/10 07:27:14;;;;;;;5.83;2.60;;;6.40;99.90;;;;;;5073159;28;20449;-74
2021/04/10 07:29:44;;;;;;;7.90;2.67;;;6.50;99.90;;;;;;5087594;28;20551;-75
2021/04/10 07:32:39;;;;;;;9.03;2.40;;;6.60;99.90;;;;;;5090759;28;20560;-75
2021/04/10 07:35:08;;;;;;;7.13;2.47;;;6.70;99.90;;;;;;5036439;28;20460;-75
2021/04/10 07:37:43;;;;;;;7.20;2.93;;;6.80;99.90;;;;;;5076641;28;20426;-75
2021/04/10 07:40:24;;;;;;;5.07;2.37;;;6.90;99.90;;;;;;5070905;28;20544;-75
2021/04/10 07:42:52;;;;;;;8.63;2.63;;;7.00;99.90;;;;;;5071570;28;20479;-75
2021/04/10 07:45:26;;;;;;;6.57;2.97;;;7.10;99.90;;;;;;5071948;28;20432;-75
2021/04/10 07:48:01;;;;;;;3.97;2.60;;;7.10;99.90;;;;;;5052191;28;20480;-75
2021/04/10 07:50:29;;;;;;;5.53;2.40;;;7.20;99.90;;;;;;5051888;28;20977;-77
2021/04/10 07:52:57;;;;;;;6.17;2.20;;;7.30;99.90;;;;;;5051219;28;20441;-77
2021/04/10 07:55:39;;;;;;;4.63;2.50;;;7.30;99.90;;;;;;5074293;28;20933;-75
2021/04/10 07:58:24;;;;;;;5.10;1.83;;;7.30;99.90;;;;;;5092145;28;20420;-75
2021/04/10 08:00:55;;;;;;;8.63;2.83;;;7.40;99.90;;;;;;5070618;28;20483;-75
2021/04/10 08:03:29;;;;;;;6.87;2.03;;;7.40;99.90;;;;;;5073124;28;20425;-75
2021/04/10 08:06:13;;;;;;;7.60;3.60;;;7.40;99.90;;;;;;5073193;28;20417;-75
2021/04/10 08:08:53;;;;;;;6.20;2.30;;;7.50;99.90;;;;;;5073629;28;20510;-76
2021/04/10 08:11:39;;;;;;;7.00;3.33;;;7.50;99.90;;;;;;5080208;28;20496;-76
2021/04/10 08:14:08;;;;;;;5.53;2.17;;;7.50;99.90;;;;;;5091647;28;20937;-76
2021/04/10 08:16:41;;;;;;;6.60;2.47;;;7.50;99.90;;;;;;5071016;28;20449;-76
2021/04/10 08:19:08;;;;;;;6.77;2.70;;;7.50;99.90;;;;;;5074153;28;20457;-76
2021/04/10 08:21:54;;;;;;;5.33;2.83;;;7.50;99.90;;;;;;5085383;28;20452;-76
2021/04/10 08:24:36;;;;;;;8.33;2.90;;;7.60;99.90;;;;;;5092067;28;20432;-75
2021/04/10 08:27:06;;;;;;;8.02;2.90;;;7.50;99.90;;;;;;5095393;28;20831;-75
2021/04/10 08:29:35;;;;;;;5.80;3.40;;;7.70;99.90;;;;;;5092914;28;20684;-76
2021/04/10 08:32:05;;;;;;;7.33;3.07;;;7.70;99.90;;;;;;5075419;28;20473;-76
2021/04/10 08:34:33;;;;;;;6.38;3.08;;;7.70;99.90;;;;;;5075178;28;21047;-75
2021/04/10 08:37:02;;;;;;;8.37;3.10;;;7.60;99.90;;;;;;5076837;28;20197;-75
2021/04/10 08:39:32;;;;;;;9.40;2.60;;;7.60;99.90;;;;;;5076378;28;20461;-76
2021/04/10 08:42:01;;;;;;;4.73;2.67;;;7.70;99.90;;;;;;5076878;28;20409;-76
2021/04/10 08:44:30;;;;;;;8.93;3.10;;;7.70;99.90;;;;;;5082956;28;20844;-76
2021/04/10 08:46:58;;;;;;;8.93;3.13;;;7.70;99.90;;;;;;5075817;28;20452;-76
2021/04/10 08:49:29;;;;;;;8.00;3.40;;;7.80;99.90;;;;;;5096578;28;20452;-76
2021/04/10 08:52:03;;;;;;;5.70;2.50;;;7.90;99.90;;;;;;5089782;28;20527;-76
2021/04/10 08:54:37;;;;;;;5.20;1.70;;;7.90;99.90;;;;;;5074931;28;20535;-75
2021/04/10 08:57:09;;;;;;;9.90;2.80;;;8.00;99.90;;;;;;5075303;28;20940;-76
2021/04/10 08:59:40;;;;;;;8.60;3.30;;;8.00;99.90;;;;;;5096566;28;20509;-76
2021/04/10 09:02:14;;;;;;;7.80;2.07;;;8.10;99.90;;;;;;5095156;28;20440;-75
2021/04/10 09:05:06;;;;;;;5.70;2.40;;;8.10;99.90;;;;;;5094939;28;20436;-75
2021/04/10 09:08:05;;;;;;;8.47;2.97;;;8.20;99.90;;;;;;5084274;28;20453;-76
2021/04/10 09:10:52;;;;;;;6.67;2.77;;;8.20;99.90;;;;;;5075863;28;20463;-76
2021/04/10 09:13:30;;;;;;;4.53;2.30;;;8.30;99.90;;;;;;5091954;28;20524;-76
2021/04/10 09:16:38;;;;;;;7.67;2.00;;;8.40;99.90;;;;;;5094850;28;20496;-75
2021/04/10 09:19:17;;;;;;;7.40;2.30;;;8.40;99.90;;;;;;5094927;28;20500;-75
2021/04/10 09:21:48;;;;;;;5.83;1.90;;;8.40;99.90;;;;;;5096335;28;20444;-75
2021/04/10 09:24:31;;;;;;;5.90;2.37;;;8.40;99.90;;;;;;5095018;28;20531;-75
2021/04/10 09:27:02;;;;;;;4.77;1.87;;;8.40;99.90;;;;;;5093671;28;20440;-76
2021/04/10 09:29:30;;;;;;;4.73;1.60;;;8.40;99.90;;;;;;5091613;28;20463;-76
2021/04/10 09:32:00;;;;;;;5.90;2.00;;;8.50;99.90;;;;;;5084212;28;20501;-76
2021/04/10 09:34:53;;;;;;;4.87;2.27;;;8.50;99.90;;;;;;5075744;28;20414;-75
2021/04/10 09:37:49;;;;;;;4.27;1.80;;;8.50;99.90;;;;;;5074060;28;20448;-75
2021/04/10 09:40:19;;;;;;;6.33;1.80;;;8.60;99.90;;;;;;5074920;28;20512;-76
2021/04/10 09:42:50;;;;;;;5.17;1.70;;;8.60;99.90;;;;;;5075767;28;20425;-76
2021/04/10 09:45:29;;;;;;;5.13;1.70;;;8.70;99.90;;;;;;5074220;28;20437;-76
2021/04/10 09:48:19;;;;;;;4.30;1.57;;;8.70;99.90;;;;;;5074131;28;20536;-76
2021/04/10 09:51:05;;;;;;;6.00;2.20;;;8.80;99.90;;;;;;5075088;28;20421;-76
2021/04/10 09:53:36;;;;;;;4.47;1.80;;;8.90;99.90;;;;;;5075626;28;20459;-76
2021/04/10 09:56:06;;;;;;;6.70;1.60;;;9.00;99.90;;;;;;5075101;28;20429;-76
2021/04/10 09:58:43;;;;;;;6.70;2.53;;;9.10;99.90;;;;;;5074129;28;20477;-76
2021/04/10 10:01:17;;;;;;;2.63;1.60;;;9.10;99.90;;;;;;5073798;28;20437;-77
2021/04/10 10:03:47;;;;;;;5.57;1.90;;;9.30;99.90;;;;;;5075292;28;20417;-76
2021/04/10 10:06:30;;;;;;;4.67;2.27;;;9.30;99.90;;;;;;5074893;28;20425;-76
2021/04/10 10:08:58;;;;;;;4.90;2.17;;;9.40;99.90;;;;;;5093585;28;20525;-76
2021/04/10 10:11:27;;;;;;;3.07;1.93;;;9.40;99.90;;;;;;5095825;28;20555;-78
2021/04/10 10:13:57;;;;;;;3.43;2.37;;;9.40;99.90;;;;;;5091813;28;20505;-78
2021/04/10 10:16:27;;;;;;;4.20;2.20;;;9.50;99.80;;;;;;5076381;28;20467;-80
2021/04/10 10:18:55;;;;;;;6.80;3.10;;;9.60;99.70;;;;;;5076117;28;20467;-78
2021/04/10 10:21:26;;;;;;;5.47;2.93;;;9.60;99.40;;;;;;5085258;28;20472;-78
2021/04/10 10:23:55;;;;;;;6.70;2.10;;;9.50;99.10;;;;;;5095475;28;20464;-80
2021/04/10 10:26:26;;;;;;;6.50;2.40;;;9.60;97.90;;;;;;5097360;28;20191;-79
2021/04/10 10:29:01;;;;;;;4.57;1.63;;;9.60;98.10;;;;;;5096036;28;20472;-78
2021/04/10 10:31:31;;;;;;;4.10;2.53;;;9.60;98.30;;;;;;5079686;28;20464;-78
2021/04/10 10:34:07;;;;;;;5.90;2.60;;;9.70;98.60;;;;;;5073030;28;20450;-78
2021/04/10 10:36:38;;;;;;;2.90;1.50;;;9.90;97.70;;;;;;5086380;28;21000;-78
2021/04/10 10:39:07;;;;;;;4.37;2.90;;;9.90;97.90;;;;;;5097940;28;20452;-78
2021/04/10 10:41:43;;;;;;;5.20;2.53;;;9.90;97.80;;;;;;5091376;28;20453;-78
2021/04/10 10:44:10;;;;;;;5.63;1.77;;;9.90;97.80;;;;;;5077987;28;20417;-78
2021/04/10 10:46:38;;;;;;;4.27;2.23;;;9.90;97.70;;;;;;5075673;28;20876;-78
2021/04/10 10:49:09;;;;;;;4.30;2.53;;;10.00;97.10;;;;;;5074746;28;20506;-76
2021/04/10 10:51:38;;;;;;;6.67;2.50;;;10.10;97.10;;;;;;5073869;28;20476;-76
2021/04/10 10:54:06;;;;;;;8.83;2.40;;;10.20;97.00;;;;;;5074851;28;20483;-76
2021/04/10 10:56:34;;;;;;;4.47;2.10;;;10.30;97.10;;;;;;5081707;28;20502;-76
2021/04/10 10:59:05;;;;;;;4.90;2.23;;;10.40;97.00;;;;;;5073929;28;20456;-76
2021/04/10 11:01:34;;;;;;;4.37;2.50;;;10.40;96.50;;;;;;5074227;28;20797;-76
2021/04/10 11:04:04;;;;;;;8.80;5.40;;;10.40;96.10;;;;;;5074033;28;20433;-76
2021/04/10 11:06:33;;;;;;;7.80;2.80;;;10.40;96.20;;;;;;5073985;28;20817;-77
2021/04/10 11:09:02;;;;;;;3.03;2.00;;;10.40;96.30;;;;;;5073807;28;20473;-76
2021/04/10 11:11:33;;;;;;;7.30;2.83;;;10.50;96.20;;;;;;5073657;28;20464;-76
2021/04/10 11:14:00;;;;;;;7.27;4.00;;;10.40;96.10;;;;;;5074177;28;20418;-76
2021/04/10 11:16:29;;;;;;;4.97;3.13;;;10.40;96.00;;;;;;5072343;28;20532;-75
2021/04/10 11:18:58;;;;;;;5.13;3.33;;;10.40;95.90;;;;;;5073935;28;20943;-76
2021/04/10 11:21:29;;;;;;;4.73;2.33;;;10.30;95.90;;;;;;5072442;28;20804;-76
2021/04/10 11:24:14;;;;;;;4.37;2.37;;;10.40;96.10;;;;;;5073698;28;20425;-75
2021/04/10 11:26:45;;;;;;;4.90;2.17;;;10.50;96.00;;;;;;5087786;28;20458;-76
2021/04/10 11:29:14;;;;;;;5.30;2.27;;;10.50;96.00;;;;;;5095350;28;20783;-76
2021/04/10 11:31:42;;;;;;;3.17;2.13;;;10.50;95.70;;;;;;5094753;28;20551;-76
2021/04/10 11:34:30;;;;;;;4.30;1.93;;;10.50;95.70;;;;;;5094205;28;20480;-77
2021/04/10 11:37:02;;;;;;;3.77;2.33;;;10.60;95.60;;;;;;5091086;28;20497;-77
2021/04/10 11:39:30;;;;;;;4.70;2.00;;;10.60;95.50;;;;;;5073599;28;20950;-77
2021/04/10 11:41:58;;;;;;;3.60;2.10;;;10.60;95.40;;;;;;5073354;28;20437;-77
2021/04/10 11:44:37;;;;;;;5.70;2.30;;;10.70;95.40;;;;;;5073510;28;20465;-78
2021/04/10 11:47:07;;;;;;;6.10;2.33;;;10.70;95.20;;;;;;5073441;28;20429;-77
2021/04/10 11:49:35;;;;;;;7.53;2.87;;;10.80;95.30;;;;;;5073298;28;20861;-77
2021/04/10 11:52:07;;;;;;;8.53;2.90;;;10.80;95.20;;;;;;5073112;28;20465;-76
2021/04/10 11:54:37;;;;;;;7.43;3.33;;;10.90;95.10;;;;;;5073062;28;21020;-76
2021/04/10 11:57:05;;;;;;;5.33;2.23;;;10.80;95.00;;;;;;5072009;28;20460;-76
2021/04/10 11:59:34;;;;;;;8.20;2.40;;;10.90;95.20;;;;;;5080609;28;20517;-76
2021/04/10 12:02:02;;;;;;;3.20;2.00;;;10.90;95.10;;;;;;5096661;28;20440;-77
2021/04/10 12:04:34;;;;;;;5.03;2.33;;;10.90;94.90;;;;;;5096073;28;20535;-76
2021/04/10 12:07:05;;;;;;;4.67;2.23;;;10.90;95.00;;;;;;5096283;28;20436;-76
2021/04/10 12:09:36;;;;;;;7.18;2.92;;;10.90;94.80;;;;;;5096754;28;20428;-76
2021/04/10 12:12:06;;;;;;;5.03;2.23;;;10.90;94.10;;;;;;5096137;28;20236;-77
2021/04/10 12:14:33;;;;;;;4.53;2.00;;;10.90;94.20;;;;;;5093226;28;20826;-78
2021/04/10 12:17:00;;;;;;;7.13;2.53;;;10.90;94.20;;;;;;5076869;28;20440;-77
2021/04/10 12:19:28;;;;;;;4.87;2.43;;;10.90;94.30;;;;;;5076786;28;20965;-76
2021/04/10 12:21:56;;;;;;;5.03;2.03;;;10.90;94.30;;;;;;5092039;28;20440;-76
2021/04/10 12:24:23;;;;;;;6.77;2.63;;;10.90;94.10;;;;;;5097295;28;21002;-76
2021/04/10 12:26:50;;;;;;;4.83;2.30;;;10.80;93.90;;;;;;5095555;28;20505;-76
2021/04/10 12:29:18;;;;;;;6.20;2.37;;;10.80;94.00;;;;;;5090327;28;20452;-77
2021/04/10 12:31:45;;;;;;;6.10;2.07;;;10.80;94.00;;;;;;5090962;28;20891;-77
2021/04/10 12:34:12;;;;;;;6.67;2.40;;;10.80;94.00;;;;;;5076642;28;20440;-77
2021/04/10 12:36:39;;;;;;;5.30;2.23;;;10.80;94.20;;;;;;5074078;28;20585;-76
2021/04/10 12:39:07;;;;;;;4.07;2.90;;;10.80;94.10;;;;;;5096920;28;20513;-76
2021/04/10 12:41:34;;;;;;;7.47;2.57;;;10.90;94.00;;;;;;5071912;28;20442;-76
2021/04/10 12:44:02;;;;;;;5.83;2.93;;;10.90;94.10;;;;;;5056582;28;20453;-76
2021/04/10 12:46:29;;;;;;;3.67;2.60;;;11.00;94.10;;;;;;5054975;28;20454;-76
2021/04/10 12:48:56;;;;;;;4.50;2.80;;;11.00;94.10;;;;;;5056728;28;20460;-76
2021/04/10 12:51:25;;;;;;;6.40;2.40;;;11.00;94.00;;;;;;5062339;28;20496;-77
2021/04/10 12:53:52;;;;;;;6.43;2.60;;;11.00;94.20;;;;;;5096455;28;20994;-77
2021/04/10 12:56:21;;;;;;;6.33;2.80;;;11.10;94.00;;;;;;5093488;28;20449;-77
2021/04/10 12:58:48;;;;;;;5.90;2.70;;;11.10;93.90;;;;;;5091065;28;20528;-77
2021/04/10 13:01:16;;;;;;;8.23;2.60;;;11.10;94.00;;;;;;5076326;28;20452;-76
2021/04/10 13:03:43;;;;;;;2.20;1.73;;;11.10;93.70;;;;;;5076509;28;20854;-76
2021/04/10 13:06:10;;;;;;;6.20;2.80;;;11.00;93.60;;;;;;5075891;28;20445;-76
2021/04/10 13:08:37;;;;;;;3.90;2.87;;;11.00;93.50;;;;;;5074580;28;20465;-76
2021/04/10 13:11:05;;;;;;;5.33;2.40;;;11.00;93.60;;;;;;5093274;28;20448;-76
2021/04/10 13:13:33;;;;;;;5.40;2.67;;;11.00;93.50;;;;;;5096082;28;20436;-76